N22SY / N22SY 7700 Squawk Report (20th of April, 2019)

Time Lat Lon Altitude Heading Speed Vertical Rate
2019-04-20 14:37:42 GMT 50.836487 5.684509 2,125 48 158 -1088
2019-04-20 14:37:29 GMT 50.830296 5.673828 2,350 49 160 -1024
2019-04-20 14:37:22 GMT 50.827225 5.668182 2,300 49 158 -1088
2019-04-20 14:37:14 GMT 50.823219 5.660782 2,500 49 159 -1472
2019-04-20 14:37:09 GMT 50.820705 5.656204 2,625 49 159 -1472
2019-04-20 14:37:00 GMT 50.817913 5.650024 2,850 48 171 -1600
2019-04-20 14:36:48 GMT 50.811813 5.638275 3,200 48 177 -832
2019-04-20 14:36:14 GMT 50.794216 5.607224 3,600 51 167 -576
2019-04-20 14:36:05 GMT 50.788399 5.595703 3,500 51 166 -704
2019-04-20 14:35:36 GMT 50.775410 5.569687 4,075 51 168 -1152
2019-04-20 14:35:28 GMT 50.772011 5.561600 4,200 50 174 -1344
2019-04-20 14:35:10 GMT 50.763912 5.545883 4,300 53 191 -1152
2019-04-20 14:35:02 GMT 50.759724 5.540924 4,500 53 191 -1152
2019-04-20 14:34:42 GMT 50.748596 5.517273 4,900 0 0 0
2019-04-20 14:34:29 GMT 50.741985 5.502014 5,100 0 0 0
2019-04-20 14:34:19 GMT 50.736912 5.491028 5,300 0 0 0
2019-04-20 14:34:11 GMT 50.732986 5.483365 5,500 0 0 0
2019-04-20 14:34:04 GMT 50.729183 5.474472 5,700 63 192 -896
2019-04-20 14:33:49 GMT 50.721687 5.459290 5,900 63 192 -896
2019-04-20 14:33:42 GMT 50.718010 5.449829 6,150 63 192 -896
2019-04-20 14:33:26 GMT 50.712097 5.428772 6,300 61 186 -1088
2019-04-20 14:33:20 GMT 50.708794 5.419464 6,400 61 186 -1088
2019-04-20 14:33:09 GMT 50.704884 5.409775 6,600 68 184 -1216
2019-04-20 14:33:00 GMT 50.701206 5.399780 6,800 68 184 -1216
2019-04-20 14:32:48 GMT 50.695389 5.381775 6,900 68 184 -1216
2019-04-20 14:32:35 GMT 50.686214 5.357285 7,100 68 184 -1216
2019-04-20 14:32:26 GMT 50.682819 5.349503 7,300 68 184 -1216
2019-04-20 14:32:18 GMT 50.682819 5.349503 7,400 68 184 -1216
2019-04-20 14:32:06 GMT 50.677792 5.336075 7,800 68 184 -1216
2019-04-20 14:31:55 GMT 50.670296 5.327701 7,800 106 199 -1280
2019-04-20 14:31:49 GMT 50.667686 5.319981 8,400 106 199 -1280
2019-04-20 14:31:40 GMT 50.658520 5.293109 8,400 106 199 -1280
2019-04-20 14:31:29 GMT 50.658520 5.293109 8,300 106 199 -1280
2019-04-20 14:31:21 GMT 50.658798 5.276184 8,400 106 199 -1280
2019-04-20 14:31:09 GMT 50.660610 5.259927 8,900 106 199 -1280
2019-04-20 14:31:02 GMT 50.661823 5.253024 8,900 106 199 -1280
2019-04-20 14:30:55 GMT 50.663593 5.243819 9,100 106 199 -1280
2019-04-20 14:30:50 GMT 50.664894 5.236767 9,200 106 199 -1280
2019-04-20 14:30:45 GMT 50.666199 5.229863 9,300 104 202 -1024
2019-04-20 14:30:40 GMT 50.669922 5.211973 9,400 104 202 -1024
2019-04-20 14:30:34 GMT 50.669922 5.211973 9,500 104 202 -1024
2019-04-20 14:30:27 GMT 50.671600 5.204620 9,600 104 202 -1024
2019-04-20 14:30:22 GMT 50.673183 5.196381 9,800 104 202 -1024
2019-04-20 14:30:13 GMT 50.676022 5.178833 10,000 104 202 -1024
2019-04-20 14:30:08 GMT 50.676022 5.178833 10,000 104 202 -1024
2019-04-20 14:30:00 GMT 50.678024 5.166779 10,300 104 202 -1024
2019-04-20 14:29:53 GMT 50.679886 5.157166 10,300 104 202 -1024
2019-04-20 14:29:43 GMT 50.682587 5.142212 10,600 104 202 -1024
2019-04-20 14:29:37 GMT 50.683701 5.136795 10,700 104 202 -1024
2019-04-20 14:29:32 GMT 50.685192 5.128479 10,900 104 202 -1024
2019-04-20 14:29:25 GMT 50.687519 5.116425 10,900 104 202 -1024
2019-04-20 14:29:19 GMT 50.688591 5.110397 11,000 104 202 -1024
2019-04-20 14:29:09 GMT 50.691196 5.094986 11,300 104 202 -1024
2019-04-20 14:29:03 GMT 50.692314 5.087738 11,400 104 202 -1024
2019-04-20 14:28:51 GMT 50.695107 5.071106 11,600 104 202 -1024
2019-04-20 14:28:46 GMT 50.696411 5.064011 11,800 106 208 -1152
2019-04-20 14:28:41 GMT 50.697620 5.056915 12,000 106 208 -1152
2019-04-20 14:28:35 GMT 50.699203 5.047073 12,000 106 208 -1152
2019-04-20 14:28:29 GMT 50.700417 5.038605 12,100 106 208 -1152
2019-04-20 14:28:23 GMT 50.701485 5.031815 12,200 106 208 -1152
2019-04-20 14:28:16 GMT 50.704090 5.018692 12,300 104 205 -1024
2019-04-20 14:28:10 GMT 50.705723 5.011368 12,400 104 202 -1024
2019-04-20 14:28:04 GMT 50.706608 5.005264 12,500 105 200 -1024
2019-04-20 14:27:56 GMT 50.708702 4.992371 12,600 105 200 -1024
2019-04-20 14:27:51 GMT 50.709583 4.985199 12,800 105 200 -1024
2019-04-20 14:27:43 GMT 50.711494 4.974365 12,900 105 206 -1088
2019-04-20 14:27:39 GMT 50.712799 4.965591 13,000 105 206 -1088
2019-04-20 14:27:28 GMT 50.717220 4.939423 13,300 105 202 -960
2019-04-20 14:27:19 GMT 50.717220 4.939423 13,400 105 202 -960
2019-04-20 14:27:14 GMT 50.718803 4.930801 13,400 105 202 -960
2019-04-20 14:27:07 GMT 50.720013 4.922409 13,675 105 202 -960
2019-04-20 14:27:00 GMT 50.721687 4.914474 13,600 106 213 -1152
2019-04-20 14:26:51 GMT 50.724201 4.900208 13,800 106 213 -1152
2019-04-20 14:26:44 GMT 50.725414 4.891205 13,900 106 213 -1152
2019-04-20 14:26:39 GMT 50.726719 4.883881 14,000 106 213 -1152
2019-04-20 14:26:34 GMT 50.728020 4.875183 14,100 106 217 -1024
2019-04-20 14:26:24 GMT 50.730999 4.859085 14,200 106 217 -1024
2019-04-20 14:26:17 GMT 50.732723 4.850311 14,400 106 217 -1024
2019-04-20 14:26:11 GMT 50.734489 4.841080 14,500 106 217 -1024
2019-04-20 14:26:06 GMT 50.735703 4.834976 14,600 106 217 -1024
2019-04-20 14:26:01 GMT 50.737099 4.827423 14,800 105 217 -1088
2019-04-20 14:25:54 GMT 50.739101 4.816818 14,800 105 217 -1088
2019-04-20 14:25:43 GMT 50.745106 4.783096 15,000 106 213 -960
2019-04-20 14:25:33 GMT 50.745106 4.783096 15,100 106 213 -960
2019-04-20 14:25:27 GMT 50.746780 4.774933 15,450 106 213 -960
2019-04-20 14:25:13 GMT 50.751717 4.749680 15,500 106 213 -896
2019-04-20 14:25:06 GMT 50.753113 4.742203 15,600 106 213 -896
2019-04-20 14:25:01 GMT 50.754696 4.733200 15,700 105 213 -1024
2019-04-20 14:24:53 GMT 50.757111 4.723008 15,900 105 213 -1216
2019-04-20 14:24:40 GMT 50.763214 4.690094 16,000 103 222 -64
2019-04-20 14:24:30 GMT 50.763214 4.690094 16,200 103 222 -64
2019-04-20 14:24:26 GMT 50.765121 4.679413 16,475 103 213 -1344
2019-04-20 14:24:10 GMT 50.768009 4.659805 16,500 103 222 -64
2019-04-20 14:23:57 GMT 50.771500 4.638596 16,700 103 216 128
2019-04-20 14:23:51 GMT 50.772385 4.628525 16,900 104 214 64
2019-04-20 14:23:38 GMT 50.776482 4.601593 17,000 104 214 64
2019-04-20 14:23:33 GMT 50.776482 4.601593 17,000 104 214 64
2019-04-20 14:23:20 GMT 50.780205 4.578781 17,000 104 214 64
2019-04-20 14:23:12 GMT 50.781509 4.569473 17,000 104 221 64
2019-04-20 14:23:01 GMT 50.785187 4.550476 17,000 104 221 64
2019-04-20 14:22:45 GMT 50.788490 4.528732 17,000 104 226 -64
2019-04-20 14:22:38 GMT 50.791100 4.512405 17,000 105 222 -64
2019-04-20 14:22:31 GMT 50.791611 4.507675 17,000 106 223 -128
2019-04-20 14:22:21 GMT 50.794682 4.490585 17,000 106 223 -128
2019-04-20 14:22:15 GMT 50.796684 4.481583 17,000 104 224 -448
2019-04-20 14:22:05 GMT 50.799477 4.465790 17,000 104 224 -448
2019-04-20 14:22:00 GMT 50.800594 4.459305 17,025 104 224 -448
2019-04-20 14:21:53 GMT 50.801804 4.448166 17,000 105 224 -576
2019-04-20 14:21:47 GMT 50.803993 4.435806 17,000 105 225 -576
2019-04-20 14:21:37 GMT 50.806507 4.421616 17,100 105 225 -576
2019-04-20 14:21:29 GMT 50.808697 4.408875 17,275 105 225 -576
2019-04-20 14:21:22 GMT 50.810883 4.395981 17,200 103 222 -64
2019-04-20 14:21:17 GMT 50.813396 4.386826 17,300 103 222 -64
2019-04-20 14:21:11 GMT 50.814514 4.380798 17,300 103 222 -64
2019-04-20 14:21:05 GMT 50.816097 4.372787 17,400 103 222 -64
2019-04-20 14:20:57 GMT 50.817680 4.360199 17,400 103 225 -448
2019-04-20 14:20:49 GMT 50.819679 4.347916 17,500 103 229 -640
2019-04-20 14:20:41 GMT 50.822193 4.322586 17,600 105 225 -640
2019-04-20 14:20:35 GMT 50.822193 4.322586 17,600 105 225 -640
2019-04-20 14:20:26 GMT 50.826988 4.295273 17,700 106 220 -256
2019-04-20 14:20:20 GMT 50.826988 4.295273 17,700 106 220 -256
2019-04-20 14:20:14 GMT 50.827595 4.290771 17,700 106 220 -256
2019-04-20 14:20:06 GMT 50.830109 4.276810 17,800 106 220 -256
2019-04-20 14:19:57 GMT 50.833786 4.261475 17,900 104 222 -576
2019-04-20 14:19:49 GMT 50.835880 4.250565 18,400 104 221 -512
2019-04-20 14:19:40 GMT 50.838303 4.234772 18,000 104 221 -512
2019-04-20 14:19:35 GMT 50.839001 4.229965 18,100 103 222 -64
2019-04-20 14:19:29 GMT 50.840488 4.219131 18,100 103 222 -64
2019-04-20 14:19:23 GMT 50.841980 4.209595 18,100 105 219 -448
2019-04-20 14:19:17 GMT 50.845284 4.188995 18,200 103 222 -64
2019-04-20 14:19:10 GMT 50.845284 4.188995 18,300 103 222 -64
2019-04-20 14:19:03 GMT 50.847099 4.180603 18,300 103 222 -64
2019-04-20 14:18:58 GMT 50.850311 4.160538 18,400 103 222 -64
2019-04-20 14:18:53 GMT 50.850311 4.160538 18,400 103 222 -64
2019-04-20 14:18:45 GMT 50.851803 4.150620 18,400 103 222 -64
2019-04-20 14:18:39 GMT 50.853291 4.141006 18,550 104 226 -512
2019-04-20 14:18:33 GMT 50.854691 4.131317 18,500 105 226 -448
2019-04-20 14:18:27 GMT 50.856411 4.121780 18,600 105 226 -448
2019-04-20 14:18:20 GMT 50.859715 4.102707 18,600 105 227 -448
2019-04-20 14:18:16 GMT 50.859715 4.102707 18,700 105 227 -448
2019-04-20 14:18:09 GMT 50.861580 4.091492 18,700 103 222 -64
2019-04-20 14:18:03 GMT 50.863209 4.084396 18,800 103 222 -64
2019-04-20 14:17:55 GMT 50.865395 4.071732 18,900 103 222 -64
2019-04-20 14:17:49 GMT 50.867306 4.060974 18,900 103 222 -64
2019-04-20 14:17:41 GMT 50.869400 4.048462 19,000 103 222 -64
2019-04-20 14:17:35 GMT 50.871216 4.037704 22,050 103 222 -64
2019-04-20 14:17:25 GMT 50.873497 4.023438 22,050 103 222 -64
2019-04-20 14:17:19 GMT 50.874706 4.013290 19,000 104 225 0
2019-04-20 14:17:12 GMT 50.876198 4.004135 19,000 104 225 0
2019-04-20 14:17:05 GMT 50.878105 3.991623 19,000 104 225 0
2019-04-20 14:16:57 GMT 50.879921 3.981094 19,000 104 225 0
2019-04-20 14:16:49 GMT 50.882385 3.966827 19,000 104 225 0
2019-04-20 14:16:36 GMT 50.885880 3.945923 19,000 105 220 0
2019-04-20 14:16:28 GMT 50.888206 3.931732 19,000 105 220 0
2019-04-20 14:16:21 GMT 50.889679 3.920709 19,000 105 220 0
2019-04-20 14:16:07 GMT 50.892815 3.899612 19,000 105 220 0
2019-04-20 14:16:00 GMT 50.894398 3.890305 19,000 104 220 0
2019-04-20 14:15:48 GMT 50.898399 3.868866 19,000 104 220 0
2019-04-20 14:15:35 GMT 50.901009 3.850708 19,000 104 220 0
2019-04-20 14:15:25 GMT 50.903290 3.835297 19,000 105 222 0
2019-04-20 14:15:17 GMT 50.905895 3.821335 19,000 105 222 0
2019-04-20 14:15:04 GMT 50.909714 3.799362 19,000 104 219 -64
2019-04-20 14:14:49 GMT 50.913715 3.775864 19,000 104 219 -64
2019-04-20 14:14:42 GMT 50.915485 3.764877 19,000 104 219 -64
2019-04-20 14:14:36 GMT 50.917114 3.756180 19,000 104 219 -64
2019-04-20 14:14:29 GMT 50.920467 3.736343 19,000 104 219 -64
2019-04-20 14:14:24 GMT 50.920513 3.735886 19,000 104 219 -64
2019-04-20 14:14:10 GMT 50.924004 3.715973 19,000 103 221 128
2019-04-20 14:14:06 GMT 50.925121 3.709793 19,000 103 220 0
2019-04-20 14:13:59 GMT 50.926517 3.698578 19,000 103 220 0
2019-04-20 14:13:50 GMT 50.928196 3.686218 19,000 103 223 -64
2019-04-20 14:13:45 GMT 50.929405 3.678284 19,000 103 223 -64
2019-04-20 14:13:41 GMT 50.930801 3.668900 19,000 103 223 -64
2019-04-20 14:13:30 GMT 50.933083 3.654327 19,000 103 219 0
2019-04-20 14:13:24 GMT 50.934711 3.643417 19,000 104 221 0
2019-04-20 14:13:19 GMT 50.935596 3.635635 19,000 104 221 0
2019-04-20 14:13:13 GMT 50.938808 3.616486 19,000 104 220 -64
2019-04-20 14:13:01 GMT 50.940205 3.607101 19,000 104 222 -64
2019-04-20 14:12:53 GMT 50.942020 3.596115 19,000 105 219 128
2019-04-20 14:12:45 GMT 50.944023 3.583298 19,000 105 219 128
2019-04-20 14:12:41 GMT 50.945511 3.573990 19,075 105 219 128
2019-04-20 14:12:27 GMT 50.951004 3.541031 19,000 104 218 64
2019-04-20 14:12:19 GMT 50.951004 3.541031 19,000 104 218 64
2019-04-20 14:12:12 GMT 50.952587 3.531876 19,000 104 219 64
2019-04-20 14:12:05 GMT 50.954590 3.519516 19,000 103 227 0
2019-04-20 14:11:57 GMT 50.956406 3.509064 19,000 103 227 0
2019-04-20 14:11:51 GMT 50.957989 3.498230 19,000 103 227 0
2019-04-20 14:11:43 GMT 50.960316 3.484192 19,000 103 227 0
2019-04-20 14:11:35 GMT 50.962318 3.473129 19,000 103 227 0
2019-04-20 14:11:30 GMT 50.963482 3.465118 19,000 103 221 0
2019-04-20 14:11:24 GMT 50.965202 3.454514 19,000 103 221 0
2019-04-20 14:11:19 GMT 50.966507 3.446579 19,000 103 221 0
2019-04-20 14:11:11 GMT 50.968510 3.433838 19,000 103 219 0
2019-04-20 14:11:03 GMT 50.970882 3.419724 19,000 103 219 0
2019-04-20 14:10:58 GMT 50.972092 3.411789 19,000 103 220 0
2019-04-20 14:10:52 GMT 50.973396 3.404007 19,000 103 220 0
2019-04-20 14:10:46 GMT 50.974606 3.395386 19,000 103 220 0
2019-04-20 14:10:40 GMT 50.976006 3.385925 19,000 103 220 0
2019-04-20 14:10:35 GMT 50.976982 3.379593 19,000 103 220 0
2019-04-20 14:10:31 GMT 50.978889 3.365784 19,000 103 218 0
2019-04-20 14:10:27 GMT 50.978889 3.365784 20,950 103 218 0
2019-04-20 14:10:15 GMT 50.982101 3.347473 19,000 104 213 0
2019-04-20 14:10:10 GMT 50.982986 3.339233 19,000 104 213 0
2019-04-20 14:10:04 GMT 50.984291 3.329391 19,000 104 213 0
2019-04-20 14:09:55 GMT 50.986710 3.313980 19,000 105 221 0
2019-04-20 14:09:45 GMT 50.988899 3.299026 19,000 103 217 0
2019-04-20 14:09:39 GMT 50.990108 3.291321 19,000 103 217 0
2019-04-20 14:09:34 GMT 50.991879 3.284836 19,000 103 217 0
2019-04-20 14:09:29 GMT 50.993507 3.274307 19,000 103 217 0
2019-04-20 14:09:22 GMT 50.997093 3.258896 19,000 104 222 0
2019-04-20 14:09:17 GMT 50.996487 3.256302 19,000 104 222 0
2019-04-20 14:09:06 GMT 50.998211 3.242416 19,000 104 226 0
2019-04-20 14:08:59 GMT 50.999607 3.231583 19,000 104 226 0
2019-04-20 14:08:51 GMT 51.001190 3.218918 19,000 104 226 0
2019-04-20 14:08:45 GMT 51.002911 3.209915 19,000 104 222 0
2019-04-20 14:08:34 GMT 51.005985 3.191605 19,000 104 222 0
2019-04-20 14:08:27 GMT 51.011990 3.155518 19,000 104 222 0
2019-04-20 14:08:11 GMT 51.014084 3.142776 19,000 105 221 0
2019-04-20 14:08:05 GMT 51.014084 3.142776 19,000 105 221 0
2019-04-20 14:07:55 GMT 51.017807 3.119125 19,000 105 221 0
2019-04-20 14:07:40 GMT 51.019714 3.106613 19,000 105 221 0
2019-04-20 14:07:31 GMT 51.022278 3.088989 19,000 105 221 0
2019-04-20 14:07:18 GMT 51.025211 3.071594 19,000 104 217 0
2019-04-20 14:07:13 GMT 51.027119 3.061981 19,000 104 217 0
2019-04-20 14:07:07 GMT 51.028606 3.052521 19,000 104 217 0
2019-04-20 14:07:00 GMT 51.030518 3.041763 19,025 104 217 0
2019-04-20 14:06:52 GMT 51.033310 3.023376 19,000 105 221 64
2019-04-20 14:06:47 GMT 51.033310 3.023376 19,000 105 221 64
2019-04-20 14:06:42 GMT 51.035217 3.012772 19,000 105 221 64
2019-04-20 14:06:35 GMT 51.036381 3.003998 19,000 105 218 0
2019-04-20 14:06:28 GMT 51.038895 2.990265 19,000 105 218 0
2019-04-20 14:06:22 GMT 51.039501 2.984467 19,000 105 223 0
2019-04-20 14:06:15 GMT 51.042294 2.971191 19,000 105 223 0
2019-04-20 14:06:10 GMT 51.043087 2.966385 19,000 105 223 0
2019-04-20 14:06:02 GMT 51.045788 2.950592 19,000 105 223 0
2019-04-20 14:05:58 GMT 51.046810 2.944412 19,000 105 223 0
2019-04-20 14:05:49 GMT 51.049416 2.930222 19,000 105 224 0
2019-04-20 14:05:41 GMT 51.054119 2.901535 19,000 106 224 0
2019-04-20 14:05:31 GMT 51.054119 2.901535 19,000 106 224 0
2019-04-20 14:05:16 GMT 51.059101 2.877274 19,000 106 218 0
2019-04-20 14:05:08 GMT 51.061287 2.866516 19,000 106 218 0
2019-04-20 14:04:50 GMT 51.067387 2.837830 19,000 104 220 0
2019-04-20 14:04:42 GMT 51.069389 2.826767 19,000 104 220 0
2019-04-20 14:04:36 GMT 51.071388 2.817535 19,000 104 220 -64
2019-04-20 14:04:20 GMT 51.075905 2.793274 19,000 101 221 -64
2019-04-20 14:04:14 GMT 51.077396 2.784271 19,000 102 225 -64
2019-04-20 14:04:03 GMT 51.080002 2.768936 19,050 101 227 64
2019-04-20 14:03:50 GMT 51.085915 2.746811 19,000 94 222 0
2019-04-20 14:03:44 GMT 51.086891 2.737198 19,000 96 219 0
2019-04-20 14:03:39 GMT 51.088009 2.727280 19,000 96 219 0
2019-04-20 14:03:33 GMT 51.089405 2.716293 19,000 94 223 0
2019-04-20 14:03:27 GMT 51.090523 2.710724 19,000 94 223 0
2019-04-20 14:03:18 GMT 51.091312 2.695999 19,000 93 223 0
2019-04-20 14:03:09 GMT 51.092480 2.677994 19,000 92 222 0
2019-04-20 14:02:56 GMT 51.093502 2.658234 19,000 92 222 0
2019-04-20 14:02:48 GMT 51.093922 2.645111 19,000 93 221 0
2019-04-20 14:02:41 GMT 51.094200 2.635269 19,000 93 221 0
2019-04-20 14:02:36 GMT 51.094109 2.625427 19,000 93 221 0
2019-04-20 14:02:30 GMT 51.094292 2.617264 19,000 92 221 0
2019-04-20 14:02:21 GMT 51.095409 2.601318 19,000 91 221 0
2019-04-20 14:02:15 GMT 51.095783 2.591629 19,000 91 221 0
2019-04-20 14:02:08 GMT 51.096107 2.581787 19,000 91 221 0
2019-04-20 14:02:00 GMT 51.096390 2.568893 19,000 91 223 0
2019-04-20 14:01:50 GMT 51.096806 2.551498 19,000 91 223 0
2019-04-20 14:01:42 GMT 51.096806 2.538376 19,000 91 223 0
2019-04-20 14:01:36 GMT 51.096714 2.530136 19,000 91 223 0
2019-04-20 14:01:28 GMT 51.096992 2.517319 19,025 91 225 0
2019-04-20 14:01:16 GMT 51.098019 2.495575 19,000 90 223 0
2019-04-20 14:01:09 GMT 51.097786 2.485580 19,000 90 222 0
2019-04-20 14:01:01 GMT 51.098110 2.461014 19,000 90 220 128
2019-04-20 14:00:56 GMT 51.098110 2.461014 19,000 90 220 128
2019-04-20 14:00:49 GMT 51.098110 2.452927 19,000 90 220 128
2019-04-20 14:00:43 GMT 51.097878 2.443085 19,050 90 220 128
2019-04-20 14:00:39 GMT 51.097878 2.434998 19,000 91 220 64
2019-04-20 14:00:30 GMT 51.097878 2.421799 19,000 91 217 0
2019-04-20 14:00:21 GMT 51.098389 2.405624 19,000 91 217 0
2019-04-20 14:00:14 GMT 51.098484 2.394485 18,975 91 217 0
2019-04-20 14:00:08 GMT 51.098621 2.386398 19,000 91 215 0
2019-04-20 14:00:03 GMT 51.098717 2.370605 19,000 91 215 0
2019-04-20 13:59:58 GMT 51.098717 2.370605 19,000 91 215 0
2019-04-20 13:59:50 GMT 51.098904 2.355118 19,000 91 221 0
2019-04-20 13:59:45 GMT 51.099087 2.348709 19,000 91 219 0
2019-04-20 13:59:38 GMT 51.099087 2.338791 19,000 91 219 0
2019-04-20 13:59:33 GMT 51.099087 2.327271 19,000 91 219 0
2019-04-20 13:59:23 GMT 51.099182 2.314987 19,000 91 226 0
2019-04-20 13:59:17 GMT 51.099087 2.303619 19,000 91 226 0
2019-04-20 13:59:09 GMT 51.099415 2.292404 19,000 91 226 0
2019-04-20 13:59:04 GMT 51.099785 2.281189 19,000 91 226 0
2019-04-20 13:58:56 GMT 51.100113 2.270813 19,000 92 222 0
2019-04-20 13:58:49 GMT 51.100300 2.257767 19,000 92 222 0
2019-04-20 13:58:42 GMT 51.100300 2.247925 19,000 92 222 0
2019-04-20 13:58:34 GMT 51.100391 2.233276 19,000 92 222 0
2019-04-20 13:58:26 GMT 51.100300 2.221603 19,000 92 222 0
2019-04-20 13:58:21 GMT 51.100716 2.210312 19,000 92 218 0
2019-04-20 13:58:15 GMT 51.100998 2.200470 19,000 92 218 0
2019-04-20 13:58:10 GMT 51.101185 2.193909 19,000 92 218 0
2019-04-20 13:58:02 GMT 51.101322 2.181396 19,000 92 218 0
2019-04-20 13:57:54 GMT 51.101322 2.166824 19,000 92 218 0
2019-04-20 13:57:50 GMT 51.101509 2.160110 19,000 88 214 0
2019-04-20 13:57:42 GMT 51.101788 2.148972 19,000 88 214 0
2019-04-20 13:57:32 GMT 51.102486 2.131805 19,000 88 214 0
2019-04-20 13:57:27 GMT 51.102116 2.125092 19,000 88 214 0
2019-04-20 13:57:18 GMT 51.102116 2.110977 19,000 88 214 0
2019-04-20 13:57:12 GMT 51.102207 2.101135 19,000 88 214 0
2019-04-20 13:57:06 GMT 51.102577 2.089691 19,000 88 214 0
2019-04-20 13:57:01 GMT 51.102486 2.082901 19,000 88 214 0
2019-04-20 13:56:53 GMT 51.103279 2.068634 19,000 88 214 0
2019-04-20 13:56:46 GMT 51.103416 2.048264 19,000 88 214 0
2019-04-20 13:56:40 GMT 51.103416 2.048264 19,000 88 214 0
2019-04-20 13:56:32 GMT 51.103512 2.027512 19,000 88 214 0
2019-04-20 13:56:27 GMT 51.103512 2.027512 19,000 88 214 0
2019-04-20 13:55:08 GMT 51.107178 1.900119 19,000 88 214 0
2019-04-20 13:54:10 GMT 51.105701 1.791061 19,000 88 212 0
2019-04-20 13:53:58 GMT 51.105701 1.791061 19,000 89 218 0
2019-04-20 13:53:30 GMT 51.107059 1.747299 19,000 91 236 60
2019-04-20 13:50:20 GMT 51.102932 1.442419 19,000 91 236 60
2019-04-20 13:49:56 GMT 51.104984 1.398911 19,000 88 211 420
2019-04-20 13:49:17 GMT 51.104637 1.332549 19,000 89 207 480
2019-04-20 13:49:07 GMT 51.104626 1.316561 19,000 91 202 1260
2019-04-20 13:47:58 GMT 51.102856 1.211540 19,000 91 202 1260
2019-04-20 13:47:46 GMT 51.102524 1.196750 18,900 94 213 1380
2019-04-20 13:47:13 GMT 51.104206 1.143277 18,300 94 198 1200
2019-04-20 13:46:58 GMT 51.104568 1.122252 18,000 102 209 1140
2019-04-20 13:46:40 GMT 51.106655 1.095184 17,600 109 214 120
2019-04-20 13:46:27 GMT 51.111687 1.075247 17,300 109 217 0
2019-04-20 13:46:16 GMT 51.119362 1.042038 17,000 109 202 -180
2019-04-20 13:46:06 GMT 51.124718 1.017144 17,000 112 243 -180
2019-04-20 13:45:48 GMT 51.124718 1.017144 17,000 109 216 -180
2019-04-20 13:45:36 GMT 51.128010 0.999873 17,000 109 205 180
2019-04-20 13:45:25 GMT 51.131062 0.984839 17,000 111 236 180
2019-04-20 13:45:15 GMT 51.134743 0.969571 17,100 106 174 1260
2019-04-20 13:45:01 GMT 51.139141 0.949312 17,000 103 183 1500
2019-04-20 13:44:47 GMT 51.141853 0.930916 17,000 87 145 840
2019-04-20 13:44:35 GMT 51.143768 0.917011 16,700 108 210 1860
2019-04-20 13:44:12 GMT 51.150604 0.883043 16,100 109 187 1440
2019-04-20 13:44:00 GMT 51.154037 0.865880 15,900 108 191 600
2019-04-20 13:43:46 GMT 51.158382 0.847185 15,500 107 218 1620
2019-04-20 13:43:32 GMT 51.162689 0.825729 15,100 103 179 1200
2019-04-20 13:43:22 GMT 51.164047 0.812927 14,900 105 155 660
2019-04-20 13:43:08 GMT 51.168480 0.792297 14,800 106 257 1500
2019-04-20 13:42:58 GMT 51.171040 0.778425 14,400 104 187 1260
2019-04-20 13:42:47 GMT 51.172436 0.764698 14,200 106 164 1500
2019-04-20 13:42:35 GMT 51.174973 0.750724 13,900 107 234 1980
2019-04-20 13:42:25 GMT 51.180813 0.721286 13,700 109 199 960
2019-04-20 13:42:15 GMT 51.180813 0.721286 13,300 111 212 0
2019-04-20 13:42:05 GMT 51.184303 0.707227 13,100 114 189 0
2019-04-20 13:41:53 GMT 51.188656 0.691985 13,100 116 168 0
2019-04-20 13:41:42 GMT 51.192715 0.680507 13,100 115 186 720
2019-04-20 13:41:31 GMT 51.196846 0.666845 13,100 114 156 1500
2019-04-20 13:41:19 GMT 51.200451 0.654222 12,900 121 141 2520
2019-04-20 13:41:08 GMT 51.203518 0.644590 12,800 119 175 3000
2019-04-20 13:40:57 GMT 51.207947 0.632209 12,400 117 151 1860
2019-04-20 13:40:47 GMT 51.211143 0.622251 12,200 115 137 1980
2019-04-20 13:40:36 GMT 51.214161 0.612191 11,900 115 149 1500
2019-04-20 13:40:26 GMT 51.217178 0.602263 11,700 116 131 2280
2019-04-20 13:40:14 GMT 51.220428 0.591864 11,300 119 171 1380
2019-04-20 13:40:02 GMT 51.225067 0.578598 11,000 117 140 840
2019-04-20 13:39:52 GMT 51.227917 0.570268 10,700 117 180 2580
2019-04-20 13:39:37 GMT 51.233650 0.552538 10,400 119 145 1500
2019-04-20 13:39:26 GMT 51.236237 0.542523 9,900 118 169 1020
2019-04-20 13:39:14 GMT 51.240696 0.530449 9,700 118 183 1080
2019-04-20 13:39:03 GMT 51.244701 0.518084 9,400 118 165 1620
2019-04-20 13:38:50 GMT 51.249470 0.504178 9,100 122 184 1980
2019-04-20 13:38:39 GMT 51.254642 0.492445 8,700 120 175 1560
2019-04-20 13:38:27 GMT 51.259628 0.479122 8,400 121 150 3420
2019-04-20 13:38:16 GMT 51.264080 0.467514 8,100 118 164 1980
2019-04-20 13:38:05 GMT 51.268101 0.455443 7,800 119 189 660
2019-04-20 13:37:53 GMT 51.273014 0.441609 7,400 119 177 1200
2019-04-20 13:37:38 GMT 51.284931 0.407168 6,900 102 148 1140
2019-04-20 13:37:23 GMT 51.284931 0.407168 6,700 116 170 1500
2019-04-20 13:37:11 GMT 51.289383 0.393871 6,400 117 173 1860
2019-04-20 13:36:59 GMT 51.293884 0.381212 6,100 121 214 2100
2019-04-20 13:36:49 GMT 51.297722 0.369422 5,800 116 181 1260
2019-04-20 13:36:39 GMT 51.301369 0.358402 5,500 115 161 720
2019-04-20 13:36:27 GMT 51.305923 0.344819 5,300 124 166 2100
2019-04-20 13:36:16 GMT 51.309978 0.332960 5,000 130 137 1080
2019-04-20 13:36:06 GMT 51.313503 0.321113 4,700 116 168 540
2019-04-20 13:35:47 GMT 51.318913 0.300018 4,200 95 216 1560
2019-04-20 13:35:37 GMT 51.320511 0.287949 4,000 104 212 0
2019-04-20 13:35:26 GMT 51.322586 0.274026 3,700 106 150 0
2019-04-20 13:35:16 GMT 51.324551 0.261944 3,700 113 143 480
2019-04-20 13:35:06 GMT 51.326611 0.249316 3,700 106 230 0
2019-04-20 13:34:54 GMT 51.329185 0.234600 3,700 107 96 -420
2019-04-20 13:34:43 GMT 51.331707 0.220479 3,700 106 156 0
2019-04-20 13:34:32 GMT 51.336376 0.195110 3,700 107 127 0
2019-04-20 13:34:22 GMT 51.336376 0.195110 3,700 103 131 300
We lost coverage of the aircraft here for a total of 277 minutes
2019-04-20 08:57:38 GMT 51.419960 0.092544 300 270 192 -896
2019-04-20 08:57:38 GMT 51.419960 0.092544 1,600 193 155 0
2019-04-20 08:57:27 GMT 51.427422 0.098189 1,500 228 234 0
2019-04-20 08:57:17 GMT 51.437695 0.123615 1,500 245 191 -300
2019-04-20 08:57:05 GMT 51.437695 0.123615 1,500 252 181 -360
2019-04-20 08:56:52 GMT 51.440994 0.140516 1,500 260 182 -660
2019-04-20 08:56:38 GMT 51.442154 0.160218 1,600 265 169 -1020
2019-04-20 08:56:26 GMT 51.442146 0.178372 1,800 269 191 -1080
2019-04-20 08:56:10 GMT 51.440647 0.198138 2,100 257 296 -1020
2019-04-20 08:55:57 GMT 51.442059 0.219727 2,200 333 125 -420
2019-04-20 08:55:46 GMT 51.441845 0.235011 2,400 269 183 0
2019-04-20 08:55:35 GMT 51.441956 0.250342 2,500 272 228 0
2019-04-20 08:55:25 GMT 51.441856 0.264446 2,500 270 157 0
2019-04-20 08:55:14 GMT 51.441383 0.280112 2,500 265 225 0
2019-04-20 08:55:03 GMT 51.441338 0.294635 3,225 270 195 -768
2019-04-20 08:54:52 GMT 51.440903 0.310703 2,500 264 196 0
2019-04-20 08:54:42 GMT 51.440418 0.324573 2,500 272 180 0
2019-04-20 08:54:32 GMT 51.440315 0.338142 2,500 268 179 -300
2019-04-20 08:54:20 GMT 51.439995 0.355470 2,500 261 219 -840
2019-04-20 08:54:07 GMT 51.441902 0.377925 2,600 291 139 -720
2019-04-20 08:53:56 GMT 51.440006 0.390583 2,700 271 205 -960
2019-04-20 08:53:46 GMT 51.440041 0.404816 2,800 266 178 -840
2019-04-20 08:53:36 GMT 51.440083 0.431595 3,000 253 312 -720
2019-04-20 08:53:29 GMT 51.441872 0.433408 3,100 312 150 -780
2019-04-20 08:53:19 GMT 51.439980 0.445107 3,300 269 171 -300
2019-04-20 08:53:08 GMT 51.439983 0.459940 3,500 273 129 0
2019-04-20 08:52:58 GMT 51.440018 0.474829 3,500 269 175 0
2019-04-20 08:52:47 GMT 51.439617 0.498123 3,500 292 161 0
2019-04-20 08:52:38 GMT 51.440189 0.501341 3,500 268 201 0
2019-04-20 08:52:27 GMT 51.440617 0.518567 3,500 289 65 0
2019-04-20 08:52:17 GMT 51.440495 0.531282 3,500 272 190 0
2019-04-20 08:52:06 GMT 51.440353 0.547017 3,500 272 238 0
2019-04-20 08:51:55 GMT 51.440907 0.561725 3,500 275 173 300
2019-04-20 08:51:44 GMT 51.441170 0.577683 3,500 265 181 0
2019-04-20 08:51:31 GMT 51.442104 0.593911 3,400 260 249 -900
2019-04-20 08:51:19 GMT 51.443825 0.611187 3,400 266 287 -660
2019-04-20 08:51:09 GMT 51.444916 0.626434 3,500 264 193 -600
2019-04-20 08:50:57 GMT 51.446114 0.643273 3,700 268 171 -900
2019-04-20 08:50:47 GMT 51.447262 0.657024 3,800 258 146 -900
2019-04-20 08:50:34 GMT 51.448517 0.676640 4,000 258 157 -780
2019-04-20 08:50:24 GMT 51.449722 0.691545 4,200 262 178 -900
2019-04-20 08:50:11 GMT 51.450912 0.709526 4,400 261 207 -600
2019-04-20 08:50:01 GMT 51.451912 0.722627 4,600 261 221 -1020
2019-04-20 08:49:51 GMT 51.452881 0.736633 4,600 262 215 -1200
2019-04-20 08:49:37 GMT 51.454708 0.758438 4,900 263 204 -1020
2019-04-20 08:49:20 GMT 51.456028 0.784000 5,100 258 138 -780
2019-04-20 08:49:09 GMT 51.457573 0.801409 5,300 266 201 -240
2019-04-20 08:48:58 GMT 51.458321 0.816997 5,500 265 230 0
2019-04-20 08:48:48 GMT 51.459061 0.830554 5,500 261 184 0
2019-04-20 08:48:34 GMT 51.461014 0.851257 5,500 263 198 120
2019-04-20 08:48:15 GMT 51.462742 0.878081 5,500 264 244 240
2019-04-20 08:48:05 GMT 51.463810 0.892523 5,500 263 147 -180
2019-04-20 08:47:52 GMT 51.465023 0.909698 5,500 264 187 -600
2019-04-20 08:47:26 GMT 51.467888 0.947514 5,400 267 183 -780
2019-04-20 08:47:08 GMT 51.470753 1.004236 5,600 270 282 -780
2019-04-20 08:46:45 GMT 51.470753 1.004236 5,900 270 180 -720
2019-04-20 08:46:28 GMT 51.471298 1.029182 6,200 265 227 -900
2019-04-20 08:46:16 GMT 51.472469 1.047208 6,400 267 161 -840
2019-04-20 08:46:06 GMT 51.474190 1.097056 6,600 265 245 -780
2019-04-20 08:45:43 GMT 51.474190 1.097056 6,900 269 200 -720
2019-04-20 08:45:30 GMT 51.474247 1.116456 7,000 266 216
2019-04-20 08:44:01 GMT 51.485054 1.288050 8,300 270 269
2019-04-20 08:43:36 GMT 51.485054 1.288050 8,700 270 269
2019-04-20 08:43:24 GMT 51.484989 1.312036 8,800
We lost coverage of the aircraft here for a total of 7 minutes
2019-04-20 08:36:44 GMT 51.508701 1.971283 10,900 267 227 -768
2019-04-20 08:36:44 GMT 51.508701 1.971283 13,400 267 227 -768
2019-04-20 08:36:36 GMT 51.509212 1.983109 13,500 267 227 -768
2019-04-20 08:36:21 GMT 51.510796 2.026825 13,600 266 225 -576
2019-04-20 08:36:10 GMT 51.510796 2.026825 13,700 266 225 -576
2019-04-20 08:36:03 GMT 51.511307 2.040482 13,900 266 225 -576
2019-04-20 08:35:55 GMT 51.512005 2.055817 14,000 266 225 -576
2019-04-20 08:35:39 GMT 51.513683 2.081528 14,200 266 225 -576
2019-04-20 08:35:33 GMT 51.514286 2.093201 14,300 266 225 -576
2019-04-20 08:35:21 GMT 51.515499 2.112122 14,400 266 225 -576
2019-04-20 08:35:08 GMT 51.516521 2.134171 14,500 266 225 -576
2019-04-20 08:35:01 GMT 51.516708 2.144089 14,775 265 224 -704
2019-04-20 08:34:50 GMT 51.518196 2.163162 15,700 266 221 -704
2019-04-20 08:34:40 GMT 51.519081 2.179031 14,900 266 221 -704
2019-04-20 08:34:27 GMT 51.520012 2.200928 15,175 266 221 -704
2019-04-20 08:34:18 GMT 51.521317 2.231369 15,200 266 217 -704
2019-04-20 08:34:11 GMT 51.522388 2.251282 15,400 266 214 -704
2019-04-20 08:33:57 GMT 51.522388 2.251282 15,400 266 214 -704
2019-04-20 08:33:50 GMT 51.523087 2.265778 15,650 266 214 -704
2019-04-20 08:33:36 GMT 51.523785 2.286835 15,825 266 219 -768
2019-04-20 08:33:27 GMT 51.524483 2.299881 15,800 267 218 -704
2019-04-20 08:33:15 GMT 51.526020 2.322922 16,100 267 218 -704
2019-04-20 08:33:09 GMT 51.526203 2.329483 16,175 267 218 -640
2019-04-20 08:32:05 GMT 51.530998 2.432404 16,900 271 228 -640
2019-04-20 08:31:56 GMT 51.531696 2.446823 17,000 271 228 -640
2019-04-20 08:31:44 GMT 51.532581 2.470093 17,100 271 228 -640
2019-04-20 08:31:35 GMT 51.533188 2.483826 17,200 272 229 -640
2019-04-20 08:31:21 GMT 51.534492 2.509766 17,400 289 244 0
2019-04-20 08:31:04 GMT 51.537376 2.536087 17,600 289 244 0
2019-04-20 08:30:47 GMT 51.532303 2.583313 17,700 289 244 0
2019-04-20 08:30:37 GMT 51.532303 2.583313 17,800 289 244 0
2019-04-20 08:30:30 GMT 51.528484 2.600327 18,000 289 244 0
2019-04-20 08:30:20 GMT 51.525787 2.612228 18,000 291 244 0
2019-04-20 08:29:22 GMT 51.478443 2.826920 18,000 292 239 0
2019-04-20 08:28:48 GMT 51.470390 2.851105 18,000 292 239 0
2019-04-20 08:28:04 GMT 51.474018 2.845993 18,000 292 241 0
2019-04-20 08:27:54 GMT 51.470203 2.862473 18,000 292 241 0
2019-04-20 08:27:39 GMT 51.464893 2.884293 18,000 292 241 0
2019-04-20 08:27:32 GMT 51.462009 2.895737 18,000 292 241 0
2019-04-20 08:27:24 GMT 51.458286 2.910767 18,000 292 241 0
2019-04-20 08:27:11 GMT 51.452606 2.930222 18,000 290 241 0
2019-04-20 08:27:01 GMT 51.447998 2.950287 18,000 290 241 0
2019-04-20 08:26:53 GMT 51.445110 2.963562 18,000 290 244 0
2019-04-20 08:26:45 GMT 51.442177 2.976913 18,000 290 244 0
2019-04-20 08:26:31 GMT 51.437523 2.999878 18,000 289 244 0
2019-04-20 08:26:24 GMT 51.434685 3.011932 18,000 289 244 0
2019-04-20 08:26:13 GMT 51.430401 3.030014 18,000 289 244 0
2019-04-20 08:26:00 GMT 51.424908 3.052673 18,000 289 244 0
2019-04-20 08:25:48 GMT 51.420578 3.069229 18,000 289 244 0
2019-04-20 08:25:33 GMT 51.414108 3.096619 18,000 289 244 0
2019-04-20 08:25:27 GMT 51.412292 3.105011 18,000 289 244 0
2019-04-20 08:25:21 GMT 51.409683 3.116913 18,000 290 244 0
2019-04-20 08:25:09 GMT 51.405586 3.137207 18,000 289 245 -64
2019-04-20 08:25:00 GMT 51.402191 3.151093 18,000 289 245 -64
2019-04-20 08:24:46 GMT 51.396603 3.176727 18,000 289 245 -64
2019-04-20 08:24:39 GMT 51.394321 3.186798 18,000 289 245 -64
2019-04-20 08:24:27 GMT 51.389713 3.209915 18,000 289 245 -64
2019-04-20 08:24:17 GMT 51.385803 3.228302 18,000 289 245 -64
2019-04-20 08:24:05 GMT 51.382217 3.244476 18,000 289 245 -64
2019-04-20 08:23:58 GMT 51.379612 3.256302 18,000 289 245 -64
2019-04-20 08:23:44 GMT 51.374306 3.280487 18,000 289 245 -64
2019-04-20 08:23:37 GMT 51.371979 3.291702 18,000 289 245 -64
2019-04-20 08:23:26 GMT 51.367321 3.313980 18,000 289 245 -64
2019-04-20 08:23:10 GMT 51.362480 3.337784 18,000 289 245 -64
2019-04-20 08:23:02 GMT 51.359688 3.351212 18,000 290 244 128
2019-04-20 08:22:51 GMT 51.355682 3.370895 18,000 290 244 128
2019-04-20 08:22:45 GMT 51.353401 3.381271 18,000 290 244 128
2019-04-20 08:22:27 GMT 51.345722 3.415833 18,000 290 244 128
2019-04-20 08:22:22 GMT 51.344280 3.422699 18,000 290 244 128
2019-04-20 08:22:17 GMT 51.341999 3.433228 18,000 290 244 128
2019-04-20 08:22:08 GMT 51.339020 3.446884 18,000 290 241 0
2019-04-20 08:21:56 GMT 51.333992 3.470230 18,000 290 241 0
2019-04-20 08:21:47 GMT 51.330917 3.483200 18,000 290 241 0
2019-04-20 08:21:41 GMT 51.328217 3.492966 18,000 290 241 0
2019-04-20 08:21:33 GMT 51.322399 3.520126 18,000 290 241 0
2019-04-20 08:21:27 GMT 51.322399 3.520126 18,000 290 242 64
2019-04-20 08:21:20 GMT 51.320724 3.528519 18,000 290 242 64
2019-04-20 08:21:14 GMT 51.318813 3.536911 18,000 290 245 0
2019-04-20 08:21:08 GMT 51.315697 3.550110 18,000 290 245 0
2019-04-20 08:21:01 GMT 51.313087 3.562164 18,000 290 245 0
2019-04-20 08:20:54 GMT 51.310390 3.575363 18,000 290 246 0
2019-04-20 08:20:45 GMT 51.307503 3.589325 18,000 289 246 0
2019-04-20 08:20:38 GMT 51.302101 3.610916 18,000 289 246 64
2019-04-20 08:20:23 GMT 51.298889 3.626480 18,000 290 245 64
2019-04-20 08:20:17 GMT 51.297401 3.635635 18,000 290 246 64
2019-04-20 08:20:08 GMT 51.294422 3.649063 18,000 290 246 64
2019-04-20 08:20:02 GMT 51.291908 3.661423 18,000 290 248 -64
2019-04-20 08:19:53 GMT 51.288986 3.674630 18,000 290 249 -192
2019-04-20 08:19:46 GMT 51.283203 3.700333 18,000 290 247 -640
2019-04-20 08:19:34 GMT 51.277988 3.722992 18,000 290 246 -1024
2019-04-20 08:19:26 GMT 51.277988 3.722992 18,000 290 246 -1024
2019-04-20 08:19:21 GMT 51.275986 3.731766 18,000 291 241 -1536
2019-04-20 08:19:14 GMT 51.272495 3.747177 18,000 291 241 -1536
2019-04-20 08:19:06 GMT 51.270306 3.757706 18,100 291 241 -1536
2019-04-20 08:19:00 GMT 51.268398 3.766327 18,200 291 241 -1536
2019-04-20 08:18:55 GMT 51.263416 3.790817 18,300 291 241 -1536
2019-04-20 08:18:46 GMT 51.259880 3.805695 18,400 291 256 -2048
2019-04-20 08:18:39 GMT 51.259880 3.805695 18,500 291 256 -2048
2019-04-20 08:18:32 GMT 51.258297 3.812866 18,700 291 256 -2048
2019-04-20 08:18:23 GMT 51.254620 3.828278 18,900 291 256 -2048
2019-04-20 08:18:16 GMT 51.251221 3.840790 19,200 291 256 -2048
2019-04-20 08:18:11 GMT 51.249592 3.847809 19,200 291 256 -2048
2019-04-20 08:18:04 GMT 51.245823 3.863525 19,400 291 256 -2048
2019-04-20 08:17:57 GMT 51.242889 3.876038 19,600 291 256 -2048
2019-04-20 08:17:51 GMT 51.240887 3.884430 19,800 291 256 -2048
2019-04-20 08:17:45 GMT 51.237907 3.896790 20,400 290 260 -2112
2019-04-20 08:17:40 GMT 51.236511 3.902435 20,400 291 265 -2112
2019-04-20 08:17:31 GMT 51.232086 3.921509 20,900 291 265 -2112
2019-04-20 08:17:23 GMT 51.228783 3.935928 20,800 291 265 -2112
2019-04-20 08:17:16 GMT 51.226406 3.947372 21,000 289 260 0
2019-04-20 08:17:10 GMT 51.224918 3.954315 21,300 289 260 0
2019-04-20 08:17:04 GMT 51.221287 3.969116 21,400 289 260 0
2019-04-20 08:16:57 GMT 51.219288 3.977814 21,800 289 260 0
2019-04-20 08:16:51 GMT 51.216587 3.988571 21,900 289 260 0
2019-04-20 08:16:43 GMT 51.212723 4.005127 22,200 289 260 0
2019-04-20 08:16:38 GMT 51.206997 4.029312 22,500 289 260 0
2019-04-20 08:16:29 GMT 51.204388 4.039917 22,700 289 260 0
2019-04-20 08:16:24 GMT 51.201595 4.051590 22,800 289 260 0
2019-04-20 08:16:18 GMT 51.201595 4.051590 23,200 289 260 0
2019-04-20 08:16:12 GMT 51.199223 4.062729 23,300 289 260 0
2019-04-20 08:16:07 GMT 51.196381 4.076996 23,600 289 260 0
2019-04-20 08:15:58 GMT 51.193684 4.090424 24,100 289 260 0
2019-04-20 08:15:49 GMT 51.190098 4.108810 24,200 289 260 0
2019-04-20 08:15:44 GMT 51.188423 4.116516 24,300 289 260 0
2019-04-20 08:15:37 GMT 51.184883 4.131317 24,800 289 260 0
2019-04-20 08:15:30 GMT 51.183022 4.140091 24,900 289 260 0
2019-04-20 08:15:24 GMT 51.180321 4.152374 25,200 289 260 0
2019-04-20 08:15:15 GMT 51.177296 4.166336 25,500 289 260 0
2019-04-20 08:15:09 GMT 51.174175 4.180069 25,700 289 260 0
2019-04-20 08:15:00 GMT 51.171104 4.192963 25,900 289 260 0
2019-04-20 08:14:52 GMT 51.168217 4.206772 26,100 289 260 0
2019-04-20 08:14:45 GMT 51.165005 4.222336 26,600 289 260 0
2019-04-20 08:14:39 GMT 51.162678 4.230270 26,700 289 260 0
2019-04-20 08:14:34 GMT 51.161423 4.235382 26,900 289 261 0
2019-04-20 08:14:27 GMT 51.158813 4.248123 27,000 289 261 0
2019-04-20 08:14:20 GMT 51.156719 4.261093 27,075 289 261 0
2019-04-20 08:14:15 GMT 51.154716 4.270096 27,000 291 260 192
2019-04-20 08:14:07 GMT 51.151413 4.288864 27,100 291 260 192
2019-04-20 08:14:00 GMT 51.149410 4.299393 27,100 292 262 0
2019-04-20 08:13:53 GMT 51.144382 4.321289 27,100 292 260 64
2019-04-20 08:13:48 GMT 51.144382 4.321289 27,025 292 260 64
2019-04-20 08:13:41 GMT 51.141499 4.331665 27,000 292 258 -64
2019-04-20 08:13:33 GMT 51.136982 4.350281 27,000 292 258 -64
2019-04-20 08:13:27 GMT 51.134979 4.359665 27,000 293 259 -64
2019-04-20 08:13:20 GMT 51.132000 4.372330 27,000 293 259 -64
2019-04-20 08:13:11 GMT 51.127483 4.389877 27,000 293 259 -64
2019-04-20 08:13:05 GMT 51.125298 4.399719 27,000 293 259 -64
2019-04-20 08:12:55 GMT 51.121387 4.413910 27,000 291 197 1472
2019-04-20 08:12:48 GMT 51.115101 4.438171 27,000 291 197 1472
2019-04-20 08:12:42 GMT 51.115101 4.438171 27,000 0 0 0
2019-04-20 08:12:37 GMT 51.113194 4.445114 27,000 0 0 0
2019-04-20 08:12:31 GMT 51.109886 4.457169 27,050 293 261 64
2019-04-20 08:12:22 GMT 51.106209 4.471283 27,000 294 258 -64
2019-04-20 08:12:15 GMT 51.102905 4.484329 27,000 294 258 -64
2019-04-20 08:12:07 GMT 51.098621 4.500809 27,000 294 258 -64
2019-04-20 08:12:00 GMT 51.093224 4.521408 27,000 294 258 -64
2019-04-20 08:11:46 GMT 51.089684 4.535217 27,000 294 258 -64
2019-04-20 08:11:34 GMT 51.083679 4.557724 27,000 294 259 192
2019-04-20 08:11:29 GMT 51.081490 4.564590 27,100 293 253 0
2019-04-20 08:11:16 GMT 51.074089 4.590836 27,100 293 253 0
2019-04-20 08:11:09 GMT 51.071388 4.600677 27,100 293 253 0
2019-04-20 08:11:01 GMT 51.067200 4.617004 27,100 293 253 0
2019-04-20 08:10:55 GMT 51.065292 4.624176 27,000 293 253 0
2019-04-20 08:10:49 GMT 51.061893 4.636688 27,000 293 253 0
2019-04-20 08:10:32 GMT 51.054909 4.664917 27,000 291 197 1472
2019-04-20 08:10:25 GMT 51.051697 4.676666 27,000 291 197 1472
2019-04-20 08:10:14 GMT 51.042294 4.710770 27,000 291 197 1472
2019-04-20 08:10:06 GMT 51.042294 4.710770 27,000 291 197 1472
2019-04-20 08:09:52 GMT 51.034286 4.736404 27,000 291 197 1472
2019-04-20 08:09:45 GMT 51.030098 4.749374 27,000 291 197 1472
2019-04-20 08:09:32 GMT 51.024792 4.766998 27,000 291 197 1472
2019-04-20 08:09:26 GMT 51.021580 4.776077 27,000 291 197 1472
2019-04-20 08:09:05 GMT 51.007797 4.834366 27,100 289 202 768
2019-04-20 08:08:50 GMT 51.007797 4.834366 27,100 289 202 768
2019-04-20 08:08:40 GMT 51.004913 4.849472 27,100 289 202 768
2019-04-20 08:08:33 GMT 51.002819 4.859390 27,100 289 202 768
2019-04-20 08:08:19 GMT 50.998211 4.879684 27,100 288 194 1088
2019-04-20 08:08:12 GMT 50.996021 4.890900 27,000 288 194 1088
2019-04-20 08:08:00 GMT 50.991692 4.915695 26,900 288 194 1088
2019-04-20 08:07:53 GMT 50.991692 4.915695 26,800 288 194 1088
2019-04-20 08:07:42 GMT 50.988388 4.932022 26,600 288 194 1088
2019-04-20 08:07:30 GMT 50.985313 4.948196 26,400 0 0 0
2019-04-20 08:07:17 GMT 50.981312 4.964981 26,200 0 0 0
2019-04-20 08:07:09 GMT 50.979401 4.974365 26,100 286 197 1344
2019-04-20 08:07:00 GMT 50.977306 4.986801 25,900 288 199 1344
2019-04-20 08:06:44 GMT 50.973816 5.011978 25,700 288 199 1344
2019-04-20 08:06:36 GMT 50.972092 5.021667 25,500 288 199 1344
2019-04-20 08:06:28 GMT 50.970280 5.031891 25,300 288 199 1344
2019-04-20 08:06:18 GMT 50.967716 5.046005 25,000 291 197 1472
2019-04-20 08:06:10 GMT 50.965389 5.057068 24,800 291 197 1472
2019-04-20 08:05:57 GMT 50.961014 5.079117 24,500 291 197 1472
2019-04-20 08:05:50 GMT 50.959805 5.084076 24,200 291 197 1472
2019-04-20 08:05:35 GMT 50.955196 5.105820 24,100 291 197 1472
2019-04-20 08:05:29 GMT 50.953381 5.113907 24,000 290 202 1536
2019-04-20 08:05:13 GMT 50.949005 5.135803 23,800 293 207 1152
2019-04-20 08:05:07 GMT 50.947002 5.145721 22,600 293 207 1152
2019-04-20 08:05:01 GMT 50.945419 5.152512 22,100 293 207 1152
2019-04-20 08:04:53 GMT 50.942299 5.166092 23,300 293 207 1152
2019-04-20 08:04:48 GMT 50.941322 5.171204 21,400 293 207 1152
2019-04-20 08:04:30 GMT 50.936295 5.193100 22,600 294 213 768
2019-04-20 08:04:24 GMT 50.934109 5.201797 22,400 294 213 768
2019-04-20 08:04:18 GMT 50.930801 5.214386 22,100 294 213 768
2019-04-20 08:04:05 GMT 50.924191 5.238571 22,000 294 217 1536
2019-04-20 08:04:00 GMT 50.921490 5.248489 21,800 292 223 768
2019-04-20 08:03:52 GMT 50.921490 5.248489 21,700 292 223 768
2019-04-20 08:03:47 GMT 50.919491 5.256119 21,600 292 223 768
2019-04-20 08:03:40 GMT 50.916603 5.267563 21,400 292 223 768
2019-04-20 08:03:33 GMT 50.913715 5.278702 21,300 292 223 768
2019-04-20 08:03:27 GMT 50.911484 5.286484 21,100 292 223 768
2019-04-20 08:03:22 GMT 50.909294 5.294266 21,000 292 223 768
2019-04-20 08:03:16 GMT 50.903988 5.313492 20,600 292 223 768
2019-04-20 08:03:08 GMT 50.901100 5.323029 20,700 292 223 768
2019-04-20 08:03:03 GMT 50.901100 5.323029 20,500 291 195 1536
2019-04-20 08:02:48 GMT 50.895096 5.346069 20,200 291 195 1536
2019-04-20 08:02:42 GMT 50.892906 5.355606 19,900 291 195 1536
2019-04-20 08:02:35 GMT 50.886997 5.377197 19,900 291 195 1536
2019-04-20 08:02:22 GMT 50.884995 5.387497 20,000 291 195 1536
2019-04-20 08:02:09 GMT 50.879501 5.411911 20,000 291 193 1664
2019-04-20 08:02:03 GMT 50.879501 5.411911 20,000 291 193 1664
2019-04-20 08:01:49 GMT 50.875217 5.430222 19,700 291 193 1664
2019-04-20 08:01:42 GMT 50.872986 5.439911 19,600 291 193 1664
2019-04-20 08:01:30 GMT 50.869400 5.455780 19,200 291 193 1664
2019-04-20 08:01:22 GMT 50.867119 5.465088 18,900 291 193 1664
2019-04-20 08:01:11 GMT 50.863579 5.479584 18,700 290 193 1664
2019-04-20 08:01:01 GMT 50.859901 5.494080 18,400 290 193 1664
2019-04-20 08:00:49 GMT 50.855480 5.512619 18,200 290 193 1664
2019-04-20 08:00:41 GMT 50.853199 5.522385 17,800 288 191 1152
2019-04-20 08:00:27 GMT 50.849522 5.538101 17,600 288 191 1152
2019-04-20 08:00:16 GMT 50.845798 5.554733 17,300 288 191 1152
2019-04-20 08:00:05 GMT 50.842678 5.567780 16,900 288 191 1152
2019-04-20 07:59:53 GMT 50.839188 5.583725 16,700 288 191 1152
2019-04-20 07:59:46 GMT 50.837093 5.592880 16,400 288 191 1152
2019-04-20 07:59:38 GMT 50.834484 5.603714 15,900 288 191 1152
2019-04-20 07:59:24 GMT 50.828899 5.623016 15,800 281 178 2048
2019-04-20 07:59:10 GMT 50.825920 5.641022 15,500 281 178 2048
2019-04-20 07:59:05 GMT 50.824894 5.647736 15,200 281 178 2048
2019-04-20 07:58:58 GMT 50.823219 5.658035 15,175 281 178 2048
2019-04-20 07:58:52 GMT 50.822521 5.664368 14,900 274 179 1856
2019-04-20 07:58:47 GMT 50.820801 5.674133 14,800 274 179 1856
2019-04-20 07:58:41 GMT 50.819588 5.679474 14,800 274 179 1856
2019-04-20 07:58:35 GMT 50.819309 5.687866 14,275 274 179 1856
2019-04-20 07:58:20 GMT 50.818890 5.708084 13,200 273 175 1728
2019-04-20 07:58:13 GMT 50.818287 5.717316 13,600 273 175 1728
2019-04-20 07:58:04 GMT 50.817215 5.732269 13,500 272 167 1600
2019-04-20 07:57:53 GMT 50.816795 5.743103 13,200 272 164 1728
2019-04-20 07:57:48 GMT 50.816704 5.750732 13,100 272 164 1728
2019-04-20 07:57:42 GMT 50.816517 5.758286 12,725 272 164 1728
2019-04-20 07:57:24 GMT 50.816006 5.780334 12,100 274 165 1728
2019-04-20 07:57:19 GMT 50.815910 5.787506 26,650 274 165 1728
2019-04-20 07:57:04 GMT 50.816704 5.801468 26,650 274 165 1728
2019-04-20 07:56:59 GMT 50.816795 5.807266 11,700 285 197 2048
2019-04-20 07:56:45 GMT 50.817215 5.822906 11,400 285 197 2048
2019-04-20 07:56:36 GMT 50.817215 5.832672 11,000 285 197 2048
2019-04-20 07:56:25 GMT 50.815399 5.848236 10,800 285 197 2048
2019-04-20 07:56:19 GMT 50.814095 5.855103 10,500 285 198 2112

Making use of Plane Finder data

You are free to use the raw flight data, aircraft information and images provided in this report for your own purposes provided the data is correctly attributed to Plane Finder. We ask that you please credit Plane Finder and link to planefinder.net in close proximity to the content.

Optionally one of the following logos (no smaller then 150x24px) can be used and must link to planefinder.net

Embedding the Plane Finder map

You are welcome to embed the Plane Finder playback map on your website to offer visitors a more interactive experience. We suggest using the following HTML code:

<iframe src="//planefinder.net/data/report/N22SY-N22SY-7700-squawk-2019-04-20/map" width="800" height="600" seamless="seamless"></iframe>

Where our data comes from

Plane Finder has a global network of data feeds and antenna radars that receive data broadcast directly from aircraft. The primary technologies used are ADS-B and MLAT. We also show feeds from the FAA and a FLARM glider feed.

Click here to find out more about the Plane Finder network.

How we collect our data